Shanksville, PA (15560)

6:34 PM EST on January 25, 2015 (GMT -0500)
Stoystown | Change Station
CLOSE
Current Station
Personal Weather Station
Location: Stoystown, PA
Elevation: 2172 ft
Nearby Weather Stations
Active Advisory: Winter Weather Advisory

Elev 2172 ft 40.11 °N, 78.94 °W | Updated 10 seconds ago

Snow
Snow
32.4 °F
Feels Like 32 °F
N
0.0
Wind Variable Wind from East
Gusts 0.0 mph

Today
High -- | Low -- °F
--% Chance of Precip.
Yesterday
High -- | Low -- °F
Precip. -- in
7:30 AM 5:26 PM
Waxing Crescent, 37% visible
Pressure 29.74 in
Visibility 0.2 miles
Clouds
Windchill 32 °F
Dew Point 19 °F
Humidity 58%
Rainfall 0.00 in
Snow Depth Not available.
UV Not available.
Pollen .10 out of 12
Air Quality Not available.
Flu Activity Not available.
SPECI KJST 252322Z AUTO 07004KT 1/4SM -SN FG VV002 00/M01 A2974 RMK AO2 P0001 T00001011

More Conditions Fewer Conditions

Pressure 29.74 in
Visibility 0.2 miles
Clouds
Windchill 32 °F
Dew Point 19 °F
Humidity 58%
Rainfall 0.00 in
Snow Depth Not available.
UV Not available.
Pollen .10 out of 12
Air Quality Not available.
Flu Activity Not available.
SPECI KJST 252322Z AUTO 07004KT 1/4SM -SN FG VV002 00/M01 A2974 RMK AO2 P0001 T00001011

More Conditions Fewer Conditions

10-Day Weather Forecast

Almanac

Astronomy

Jan. 25, 2015 Rise Set
Actual Time
Civil Twilight
Nautical Twilight
Astronomical Twilight
Moon
Length of Visible Light
Length of Day
Tomorrow will be .
, % of the Moon is Illuminated

Today's Extremes

State Highs State Lows

Community

WunderPhotos

Upload Photos

1,790,090 photos uploaded!

WunderBlogs® & News

Nearby

Air Quality

  Air Quality AQ Index Pollutant
Not available.

Snow Depth

Station Depth Elevation

Earthquake Activity

City Distance Mag. Time & Date
Minimum magnitude displayed is 2.5.

Coastal Water Temperatures

Place Temperature

Nearby Weather Stations